sensor_id;sensor_type;location;lat;lon;timestamp;P1;durP1;ratioP1;P2;durP2;ratioP2
33794;SDS011;51430;52.242;21.118;2023-04-03T00:01:18;2.40;;;1.80;;
33794;SDS011;51430;52.242;21.118;2023-04-03T00:03:46;4.10;;;2.30;;
33794;SDS011;51430;52.242;21.118;2023-04-03T00:06:31;2.90;;;1.70;;
33794;SDS011;51430;52.242;21.118;2023-04-03T00:09:00;4.20;;;1.90;;
33794;SDS011;51430;52.242;21.118;2023-04-03T00:11:28;3.30;;;2.30;;
33794;SDS011;51430;52.242;21.118;2023-04-03T00:13:56;3.00;;;2.00;;
33794;SDS011;51430;52.242;21.118;2023-04-03T00:16:25;3.80;;;2.10;;
33794;SDS011;51430;52.242;21.118;2023-04-03T00:18:52;3.80;;;2.10;;
33794;SDS011;51430;52.242;21.118;2023-04-03T00:21:20;2.70;;;2.10;;
33794;SDS011;51430;52.242;21.118;2023-04-03T00:23:48;2.90;;;2.10;;
33794;SDS011;51430;52.242;21.118;2023-04-03T00:26:16;3.90;;;2.30;;
33794;SDS011;51430;52.242;21.118;2023-04-03T00:28:44;2.60;;;1.90;;
33794;SDS011;51430;52.242;21.118;2023-04-03T00:31:14;3.90;;;2.10;;
33794;SDS011;51430;52.242;21.118;2023-04-03T00:33:43;3.60;;;2.10;;
33794;SDS011;51430;52.242;21.118;2023-04-03T00:36:11;3.20;;;1.90;;
33794;SDS011;51430;52.242;21.118;2023-04-03T00:38:40;3.70;;;2.00;;
33794;SDS011;51430;52.242;21.118;2023-04-03T00:41:08;3.80;;;2.10;;
33794;SDS011;51430;52.242;21.118;2023-04-03T00:43:35;3.40;;;1.90;;
33794;SDS011;51430;52.242;21.118;2023-04-03T00:46:04;2.40;;;1.90;;
33794;SDS011;51430;52.242;21.118;2023-04-03T00:48:33;4.20;;;2.00;;
33794;SDS011;51430;52.242;21.118;2023-04-03T00:51:06;3.40;;;1.90;;
33794;SDS011;51430;52.242;21.118;2023-04-03T00:53:38;4.00;;;1.80;;
33794;SDS011;51430;52.242;21.118;2023-04-03T00:56:09;4.40;;;2.20;;
33794;SDS011;51430;52.242;21.118;2023-04-03T00:58:41;3.00;;;1.70;;
33794;SDS011;51430;52.242;21.118;2023-04-03T01:01:14;3.90;;;2.20;;
33794;SDS011;51430;52.242;21.118;2023-04-03T01:03:46;3.20;;;1.80;;
33794;SDS011;51430;52.242;21.118;2023-04-03T01:06:14;3.50;;;2.00;;
33794;SDS011;51430;52.242;21.118;2023-04-03T01:08:44;3.70;;;1.80;;
33794;SDS011;51430;52.242;21.118;2023-04-03T01:11:14;2.50;;;1.70;;
33794;SDS011;51430;52.242;21.118;2023-04-03T01:13:42;3.40;;;1.90;;
33794;SDS011;51430;52.242;21.118;2023-04-03T01:16:10;3.40;;;1.90;;
33794;SDS011;51430;52.242;21.118;2023-04-03T01:18:39;3.50;;;1.90;;
33794;SDS011;51430;52.242;21.118;2023-04-03T01:21:28;3.80;;;2.10;;
33794;SDS011;51430;52.242;21.118;2023-04-03T01:26:45;4.10;;;3.60;;
33794;SDS011;51430;52.242;21.118;2023-04-03T01:29:13;4.10;;;3.20;;
33794;SDS011;51430;52.242;21.118;2023-04-03T01:31:46;3.70;;;2.10;;
33794;SDS011;51430;52.242;21.118;2023-04-03T01:34:16;3.20;;;2.10;;
33794;SDS011;51430;52.242;21.118;2023-04-03T01:36:45;3.10;;;1.90;;
33794;SDS011;51430;52.242;21.118;2023-04-03T01:39:13;3.30;;;2.00;;
33794;SDS011;51430;52.242;21.118;2023-04-03T01:41:41;3.30;;;1.90;;
33794;SDS011;51430;52.242;21.118;2023-04-03T01:44:09;3.20;;;2.00;;
33794;SDS011;51430;52.242;21.118;2023-04-03T01:46:38;2.90;;;1.90;;
33794;SDS011;51430;52.242;21.118;2023-04-03T01:49:05;4.60;;;2.00;;
33794;SDS011;51430;52.242;21.118;2023-04-03T01:51:33;2.70;;;2.00;;
33794;SDS011;51430;52.242;21.118;2023-04-03T01:54:01;2.40;;;1.90;;
33794;SDS011;51430;52.242;21.118;2023-04-03T01:56:29;3.20;;;1.80;;
33794;SDS011;51430;52.242;21.118;2023-04-03T01:58:57;3.00;;;2.00;;
33794;SDS011;51430;52.242;21.118;2023-04-03T02:01:25;4.10;;;2.10;;
33794;SDS011;51430;52.242;21.118;2023-04-03T02:03:53;2.70;;;2.00;;
33794;SDS011;51430;52.242;21.118;2023-04-03T02:06:21;3.60;;;1.70;;
33794;SDS011;51430;52.242;21.118;2023-04-03T02:08:49;3.00;;;1.70;;
33794;SDS011;51430;52.242;21.118;2023-04-03T02:11:17;3.20;;;2.10;;
33794;SDS011;51430;52.242;21.118;2023-04-03T02:13:44;3.50;;;1.80;;
33794;SDS011;51430;52.242;21.118;2023-04-03T02:16:12;5.60;;;2.30;;
33794;SDS011;51430;52.242;21.118;2023-04-03T02:18:41;2.50;;;1.80;;
33794;SDS011;51430;52.242;21.118;2023-04-03T02:21:08;2.30;;;1.70;;
33794;SDS011;51430;52.242;21.118;2023-04-03T02:23:36;3.00;;;1.90;;
33794;SDS011;51430;52.242;21.118;2023-04-03T02:26:09;3.30;;;1.80;;
33794;SDS011;51430;52.242;21.118;2023-04-03T02:28:39;4.00;;;1.80;;
33794;SDS011;51430;52.242;21.118;2023-04-03T02:31:08;3.50;;;2.20;;
33794;SDS011;51430;52.242;21.118;2023-04-03T02:33:38;3.20;;;1.90;;
33794;SDS011;51430;52.242;21.118;2023-04-03T02:36:06;3.50;;;1.80;;
33794;SDS011;51430;52.242;21.118;2023-04-03T02:38:35;4.00;;;1.70;;
33794;SDS011;51430;52.242;21.118;2023-04-03T02:41:07;3.20;;;1.90;;
33794;SDS011;51430;52.242;21.118;2023-04-03T02:43:37;3.10;;;1.70;;
33794;SDS011;51430;52.242;21.118;2023-04-03T02:46:06;3.50;;;1.80;;
33794;SDS011;51430;52.242;21.118;2023-04-03T02:48:35;3.60;;;1.90;;
33794;SDS011;51430;52.242;21.118;2023-04-03T02:51:03;3.10;;;1.90;;
33794;SDS011;51430;52.242;21.118;2023-04-03T02:53:32;2.90;;;1.80;;
33794;SDS011;51430;52.242;21.118;2023-04-03T02:56:00;2.70;;;1.70;;
33794;SDS011;51430;52.242;21.118;2023-04-03T02:58:27;2.50;;;1.70;;
33794;SDS011;51430;52.242;21.118;2023-04-03T03:00:55;2.50;;;1.60;;
33794;SDS011;51430;52.242;21.118;2023-04-03T03:03:25;3.50;;;1.70;;
33794;SDS011;51430;52.242;21.118;2023-04-03T03:06:03;4.50;;;2.00;;
33794;SDS011;51430;52.242;21.118;2023-04-03T03:08:39;3.50;;;1.70;;
33794;SDS011;51430;52.242;21.118;2023-04-03T03:11:07;3.00;;;1.90;;
33794;SDS011;51430;52.242;21.118;2023-04-03T03:13:36;2.90;;;1.80;;
33794;SDS011;51430;52.242;21.118;2023-04-03T03:16:04;3.50;;;2.20;;
33794;SDS011;51430;52.242;21.118;2023-04-03T03:18:33;3.10;;;2.10;;
33794;SDS011;51430;52.242;21.118;2023-04-03T03:21:02;2.10;;;1.80;;
33794;SDS011;51430;52.242;21.118;2023-04-03T03:23:31;3.40;;;2.20;;
33794;SDS011;51430;52.242;21.118;2023-04-03T03:26:04;3.00;;;1.90;;
33794;SDS011;51430;52.242;21.118;2023-04-03T03:28:37;3.60;;;2.20;;
33794;SDS011;51430;52.242;21.118;2023-04-03T03:31:06;3.90;;;2.30;;
33794;SDS011;51430;52.242;21.118;2023-04-03T03:33:36;4.00;;;2.30;;
33794;SDS011;51430;52.242;21.118;2023-04-03T03:36:04;3.30;;;2.40;;
33794;SDS011;51430;52.242;21.118;2023-04-03T03:38:33;5.40;;;2.40;;
33794;SDS011;51430;52.242;21.118;2023-04-03T03:41:01;4.40;;;2.20;;
33794;SDS011;51430;52.242;21.118;2023-04-03T03:43:28;4.30;;;2.20;;
33794;SDS011;51430;52.242;21.118;2023-04-03T03:45:57;3.60;;;2.30;;
33794;SDS011;51430;52.242;21.118;2023-04-03T03:48:25;3.80;;;2.10;;
33794;SDS011;51430;52.242;21.118;2023-04-03T03:50:53;4.60;;;2.00;;
33794;SDS011;51430;52.242;21.118;2023-04-03T03:53:21;3.60;;;2.20;;
33794;SDS011;51430;52.242;21.118;2023-04-03T03:55:48;3.50;;;2.10;;
33794;SDS011;51430;52.242;21.118;2023-04-03T03:58:16;4.70;;;2.30;;
33794;SDS011;51430;52.242;21.118;2023-04-03T04:00:44;3.70;;;2.00;;
33794;SDS011;51430;52.242;21.118;2023-04-03T04:03:12;4.40;;;2.10;;
33794;SDS011;51430;52.242;21.118;2023-04-03T04:05:40;3.70;;;1.90;;
33794;SDS011;51430;52.242;21.118;2023-04-03T04:08:08;3.50;;;2.20;;
33794;SDS011;51430;52.242;21.118;2023-04-03T04:10:36;4.90;;;2.40;;
33794;SDS011;51430;52.242;21.118;2023-04-03T04:13:05;3.70;;;2.40;;
33794;SDS011;51430;52.242;21.118;2023-04-03T04:15:33;4.90;;;2.70;;
33794;SDS011;51430;52.242;21.118;2023-04-03T04:18:02;3.70;;;2.30;;
33794;SDS011;51430;52.242;21.118;2023-04-03T04:20:31;5.20;;;2.70;;
33794;SDS011;51430;52.242;21.118;2023-04-03T04:23:00;5.20;;;2.50;;
33794;SDS011;51430;52.242;21.118;2023-04-03T04:25:28;5.60;;;3.00;;
33794;SDS011;51430;52.242;21.118;2023-04-03T04:27:56;4.40;;;2.40;;
33794;SDS011;51430;52.242;21.118;2023-04-03T04:30:24;3.50;;;2.20;;
33794;SDS011;51430;52.242;21.118;2023-04-03T04:32:52;4.20;;;2.20;;
33794;SDS011;51430;52.242;21.118;2023-04-03T04:35:20;4.00;;;2.00;;
33794;SDS011;51430;52.242;21.118;2023-04-03T04:37:47;5.10;;;2.30;;
33794;SDS011;51430;52.242;21.118;2023-04-03T04:40:15;3.40;;;2.20;;
33794;SDS011;51430;52.242;21.118;2023-04-03T04:42:43;3.00;;;2.00;;
33794;SDS011;51430;52.242;21.118;2023-04-03T04:45:11;5.30;;;2.30;;
33794;SDS011;51430;52.242;21.118;2023-04-03T04:47:38;3.80;;;2.30;;
33794;SDS011;51430;52.242;21.118;2023-04-03T04:50:07;4.90;;;2.30;;
33794;SDS011;51430;52.242;21.118;2023-04-03T04:52:35;4.40;;;2.20;;
33794;SDS011;51430;52.242;21.118;2023-04-03T04:55:03;2.80;;;1.90;;
33794;SDS011;51430;52.242;21.118;2023-04-03T04:57:32;5.00;;;2.30;;
33794;SDS011;51430;52.242;21.118;2023-04-03T05:00:00;3.80;;;2.20;;
33794;SDS011;51430;52.242;21.118;2023-04-03T05:02:28;3.10;;;2.10;;
33794;SDS011;51430;52.242;21.118;2023-04-03T05:04:56;3.30;;;2.30;;
33794;SDS011;51430;52.242;21.118;2023-04-03T05:07:24;5.70;;;2.10;;
33794;SDS011;51430;52.242;21.118;2023-04-03T05:09:52;3.20;;;2.00;;
33794;SDS011;51430;52.242;21.118;2023-04-03T05:12:20;3.60;;;2.10;;
33794;SDS011;51430;52.242;21.118;2023-04-03T05:14:48;4.00;;;2.00;;
33794;SDS011;51430;52.242;21.118;2023-04-03T05:17:16;4.70;;;2.30;;
33794;SDS011;51430;52.242;21.118;2023-04-03T05:19:44;3.40;;;1.90;;
33794;SDS011;51430;52.242;21.118;2023-04-03T05:22:12;3.80;;;2.10;;
33794;SDS011;51430;52.242;21.118;2023-04-03T05:24:40;3.70;;;2.10;;
33794;SDS011;51430;52.242;21.118;2023-04-03T05:27:09;3.30;;;2.10;;
33794;SDS011;51430;52.242;21.118;2023-04-03T05:29:36;4.70;;;2.20;;
33794;SDS011;51430;52.242;21.118;2023-04-03T05:32:04;4.20;;;2.10;;
33794;SDS011;51430;52.242;21.118;2023-04-03T05:34:32;3.40;;;2.20;;
33794;SDS011;51430;52.242;21.118;2023-04-03T05:37:00;3.00;;;1.90;;
33794;SDS011;51430;52.242;21.118;2023-04-03T05:39:30;5.20;;;2.00;;
33794;SDS011;51430;52.242;21.118;2023-04-03T05:42:00;4.00;;;2.00;;
33794;SDS011;51430;52.242;21.118;2023-04-03T05:44:28;3.40;;;1.80;;
33794;SDS011;51430;52.242;21.118;2023-04-03T05:46:56;3.10;;;1.70;;
33794;SDS011;51430;52.242;21.118;2023-04-03T05:49:24;3.30;;;1.60;;
33794;SDS011;51430;52.242;21.118;2023-04-03T05:51:55;2.90;;;1.60;;
33794;SDS011;51430;52.242;21.118;2023-04-03T05:54:25;3.80;;;2.10;;
33794;SDS011;51430;52.242;21.118;2023-04-03T05:56:58;3.40;;;1.80;;
33794;SDS011;51430;52.242;21.118;2023-04-03T05:59:26;3.80;;;1.80;;
33794;SDS011;51430;52.242;21.118;2023-04-03T06:01:54;2.70;;;1.60;;
33794;SDS011;51430;52.242;21.118;2023-04-03T06:04:22;3.10;;;1.80;;
33794;SDS011;51430;52.242;21.118;2023-04-03T06:06:56;3.20;;;2.00;;
33794;SDS011;51430;52.242;21.118;2023-04-03T06:09:26;3.80;;;1.90;;
33794;SDS011;51430;52.242;21.118;2023-04-03T06:11:56;5.50;;;2.40;;
33794;SDS011;51430;52.242;21.118;2023-04-03T06:14:26;4.60;;;2.30;;
33794;SDS011;51430;52.242;21.118;2023-04-03T06:16:54;4.40;;;2.30;;
33794;SDS011;51430;52.242;21.118;2023-04-03T06:19:22;3.60;;;2.40;;
33794;SDS011;51430;52.242;21.118;2023-04-03T06:21:51;4.40;;;2.80;;
33794;SDS011;51430;52.242;21.118;2023-04-03T06:24:19;6.30;;;3.10;;
33794;SDS011;51430;52.242;21.118;2023-04-03T06:26:49;4.40;;;2.60;;
33794;SDS011;51430;52.242;21.118;2023-04-03T06:29:19;4.00;;;2.20;;
33794;SDS011;51430;52.242;21.118;2023-04-03T06:31:48;5.40;;;2.70;;
33794;SDS011;51430;52.242;21.118;2023-04-03T06:34:17;4.10;;;2.40;;
33794;SDS011;51430;52.242;21.118;2023-04-03T06:36:45;3.90;;;2.40;;
33794;SDS011;51430;52.242;21.118;2023-04-03T06:39:14;3.90;;;2.40;;
33794;SDS011;51430;52.242;21.118;2023-04-03T06:41:48;4.30;;;2.70;;
33794;SDS011;51430;52.242;21.118;2023-04-03T06:44:18;4.20;;;2.60;;
33794;SDS011;51430;52.242;21.118;2023-04-03T06:46:46;2.70;;;2.00;;
33794;SDS011;51430;52.242;21.118;2023-04-03T06:49:14;4.60;;;2.60;;
33794;SDS011;51430;52.242;21.118;2023-04-03T06:51:42;5.80;;;2.40;;
33794;SDS011;51430;52.242;21.118;2023-04-03T06:54:10;4.50;;;2.30;;
33794;SDS011;51430;52.242;21.118;2023-04-03T06:56:39;5.90;;;2.40;;
33794;SDS011;51430;52.242;21.118;2023-04-03T06:59:15;5.80;;;3.00;;
33794;SDS011;51430;52.242;21.118;2023-04-03T07:01:47;3.80;;;2.50;;
33794;SDS011;51430;52.242;21.118;2023-04-03T07:04:33;4.40;;;2.60;;
33794;SDS011;51430;52.242;21.118;2023-04-03T07:07:03;4.70;;;2.40;;
33794;SDS011;51430;52.242;21.118;2023-04-03T07:09:30;4.50;;;2.70;;
33794;SDS011;51430;52.242;21.118;2023-04-03T07:11:59;4.70;;;2.70;;
33794;SDS011;51430;52.242;21.118;2023-04-03T07:14:27;7.00;;;2.80;;
33794;SDS011;51430;52.242;21.118;2023-04-03T07:16:54;3.40;;;2.40;;
33794;SDS011;51430;52.242;21.118;2023-04-03T07:19:22;4.00;;;2.10;;
33794;SDS011;51430;52.242;21.118;2023-04-03T07:21:52;3.70;;;2.10;;
33794;SDS011;51430;52.242;21.118;2023-04-03T07:24:20;4.50;;;2.20;;
33794;SDS011;51430;52.242;21.118;2023-04-03T07:26:52;4.20;;;2.10;;
33794;SDS011;51430;52.242;21.118;2023-04-03T07:29:20;5.40;;;2.00;;
33794;SDS011;51430;52.242;21.118;2023-04-03T07:31:49;3.60;;;2.10;;
33794;SDS011;51430;52.242;21.118;2023-04-03T07:34:17;5.40;;;2.20;;
33794;SDS011;51430;52.242;21.118;2023-04-03T07:36:45;3.30;;;2.20;;
33794;SDS011;51430;52.242;21.118;2023-04-03T07:39:14;5.00;;;2.30;;
33794;SDS011;51430;52.242;21.118;2023-04-03T07:41:42;6.40;;;2.60;;
33794;SDS011;51430;52.242;21.118;2023-04-03T07:44:09;5.00;;;2.50;;
33794;SDS011;51430;52.242;21.118;2023-04-03T07:46:37;6.50;;;2.80;;
33794;SDS011;51430;52.242;21.118;2023-04-03T07:49:06;4.70;;;2.40;;
33794;SDS011;51430;52.242;21.118;2023-04-03T07:51:34;3.30;;;1.90;;
33794;SDS011;51430;52.242;21.118;2023-04-03T07:54:02;3.00;;;1.90;;
33794;SDS011;51430;52.242;21.118;2023-04-03T07:56:31;3.20;;;1.80;;
33794;SDS011;51430;52.242;21.118;2023-04-03T07:58:59;3.20;;;1.80;;
33794;SDS011;51430;52.242;21.118;2023-04-03T08:01:27;2.80;;;1.80;;
33794;SDS011;51430;52.242;21.118;2023-04-03T08:03:56;2.50;;;1.60;;
33794;SDS011;51430;52.242;21.118;2023-04-03T08:06:25;4.20;;;2.00;;
33794;SDS011;51430;52.242;21.118;2023-04-03T08:09:14;2.90;;;1.90;;
33794;SDS011;51430;52.242;21.118;2023-04-03T08:11:43;2.70;;;1.80;;
33794;SDS011;51430;52.242;21.118;2023-04-03T08:14:12;2.20;;;1.70;;
33794;SDS011;51430;52.242;21.118;2023-04-03T08:16:45;2.60;;;1.60;;
33794;SDS011;51430;52.242;21.118;2023-04-03T08:19:15;3.00;;;1.70;;
33794;SDS011;51430;52.242;21.118;2023-04-03T08:21:53;2.90;;;1.60;;
33794;SDS011;51430;52.242;21.118;2023-04-03T08:24:23;2.90;;;1.80;;
33794;SDS011;51430;52.242;21.118;2023-04-03T08:26:51;1.80;;;1.60;;
33794;SDS011;51430;52.242;21.118;2023-04-03T08:29:19;3.10;;;2.00;;
33794;SDS011;51430;52.242;21.118;2023-04-03T08:31:47;3.40;;;1.80;;
33794;SDS011;51430;52.242;21.118;2023-04-03T08:34:17;3.40;;;1.80;;
33794;SDS011;51430;52.242;21.118;2023-04-03T08:36:47;3.40;;;1.70;;
33794;SDS011;51430;52.242;21.118;2023-04-03T08:39:17;2.60;;;1.90;;
33794;SDS011;51430;52.242;21.118;2023-04-03T08:41:45;2.40;;;1.50;;
33794;SDS011;51430;52.242;21.118;2023-04-03T08:49:33;2.40;;;1.30;;
33794;SDS011;51430;52.242;21.118;2023-04-03T08:52:11;2.20;;;1.30;;
33794;SDS011;51430;52.242;21.118;2023-04-03T08:57:17;1.90;;;1.40;;
33794;SDS011;51430;52.242;21.118;2023-04-03T08:59:52;2.20;;;1.60;;
33794;SDS011;51430;52.242;21.118;2023-04-03T09:02:24;1.90;;;1.40;;
33794;SDS011;51430;52.242;21.118;2023-04-03T09:04:57;2.70;;;1.50;;
33794;SDS011;51430;52.242;21.118;2023-04-03T09:07:30;2.10;;;1.40;;
33794;SDS011;51430;52.242;21.118;2023-04-03T09:10:03;1.80;;;1.30;;
33794;SDS011;51430;52.242;21.118;2023-04-03T09:12:39;2.10;;;1.30;;
33794;SDS011;51430;52.242;21.118;2023-04-03T09:15:22;2.40;;;1.40;;
33794;SDS011;51430;52.242;21.118;2023-04-03T09:18:13;2.60;;;1.30;;
33794;SDS011;51430;52.242;21.118;2023-04-03T09:23:52;1.50;;;1.30;;
33794;SDS011;51430;52.242;21.118;2023-04-03T09:26:28;2.20;;;1.50;;
33794;SDS011;51430;52.242;21.118;2023-04-03T09:29:02;3.10;;;1.50;;
33794;SDS011;51430;52.242;21.118;2023-04-03T09:31:37;2.90;;;1.50;;
33794;SDS011;51430;52.242;21.118;2023-04-03T09:34:19;2.40;;;1.60;;
33794;SDS011;51430;52.242;21.118;2023-04-03T09:36:51;2.40;;;1.30;;
33794;SDS011;51430;52.242;21.118;2023-04-03T09:39:22;1.80;;;1.40;;
33794;SDS011;51430;52.242;21.118;2023-04-03T09:42:03;2.90;;;1.30;;
33794;SDS011;51430;52.242;21.118;2023-04-03T09:44:35;3.30;;;1.50;;
33794;SDS011;51430;52.242;21.118;2023-04-03T09:47:17;2.30;;;1.40;;
33794;SDS011;51430;52.242;21.118;2023-04-03T09:50:08;2.40;;;1.40;;
33794;SDS011;51430;52.242;21.118;2023-04-03T09:52:38;2.10;;;1.30;;
33794;SDS011;51430;52.242;21.118;2023-04-03T09:55:10;2.00;;;1.40;;
33794;SDS011;51430;52.242;21.118;2023-04-03T09:57:46;1.70;;;1.40;;
33794;SDS011;51430;52.242;21.118;2023-04-03T10:00:41;4.40;;;1.70;;
33794;SDS011;51430;52.242;21.118;2023-04-03T10:03:23;2.30;;;1.60;;
33794;SDS011;51430;52.242;21.118;2023-04-03T10:06:00;2.20;;;1.30;;
33794;SDS011;51430;52.242;21.118;2023-04-03T10:08:31;4.40;;;1.50;;
33794;SDS011;51430;52.242;21.118;2023-04-03T10:11:09;1.90;;;1.40;;
33794;SDS011;51430;52.242;21.118;2023-04-03T10:13:49;2.70;;;1.50;;
33794;SDS011;51430;52.242;21.118;2023-04-03T10:19:55;1.60;;;1.30;;
33794;SDS011;51430;52.242;21.118;2023-04-03T10:22:59;1.20;;;1.10;;
33794;SDS011;51430;52.242;21.118;2023-04-03T10:29:21;2.40;;;1.20;;
33794;SDS011;51430;52.242;21.118;2023-04-03T10:42:43;2.60;;;1.30;;
33794;SDS011;51430;52.242;21.118;2023-04-03T10:45:27;2.10;;;1.10;;
33794;SDS011;51430;52.242;21.118;2023-04-03T10:48:25;2.10;;;1.50;;
33794;SDS011;51430;52.242;21.118;2023-04-03T10:56:27;2.00;;;1.20;;
33794;SDS011;51430;52.242;21.118;2023-04-03T10:59:07;1.60;;;1.00;;
33794;SDS011;51430;52.242;21.118;2023-04-03T11:01:45;2.10;;;1.10;;
33794;SDS011;51430;52.242;21.118;2023-04-03T11:04:16;2.30;;;1.40;;
33794;SDS011;51430;52.242;21.118;2023-04-03T11:06:49;3.10;;;1.60;;
33794;SDS011;51430;52.242;21.118;2023-04-03T11:09:21;2.80;;;1.50;;
33794;SDS011;51430;52.242;21.118;2023-04-03T11:11:55;1.60;;;1.10;;
33794;SDS011;51430;52.242;21.118;2023-04-03T11:14:31;3.00;;;1.20;;
33794;SDS011;51430;52.242;21.118;2023-04-03T11:17:11;3.50;;;1.50;;
33794;SDS011;51430;52.242;21.118;2023-04-03T11:19:45;2.70;;;1.40;;
33794;SDS011;51430;52.242;21.118;2023-04-03T11:22:39;2.10;;;1.30;;
33794;SDS011;51430;52.242;21.118;2023-04-03T11:33:37;3.60;;;1.50;;
33794;SDS011;51430;52.242;21.118;2023-04-03T11:36:33;3.90;;;1.30;;
33794;SDS011;51430;52.242;21.118;2023-04-03T11:39:19;2.40;;;1.50;;
33794;SDS011;51430;52.242;21.118;2023-04-03T11:41:50;2.40;;;1.30;;
33794;SDS011;51430;52.242;21.118;2023-04-03T11:47:07;1.80;;;1.30;;
33794;SDS011;51430;52.242;21.118;2023-04-03T12:13:35;3.50;;;1.50;;
33794;SDS011;51430;52.242;21.118;2023-04-03T12:16:33;2.40;;;1.60;;
33794;SDS011;51430;52.242;21.118;2023-04-03T12:22:07;2.80;;;2.10;;
33794;SDS011;51430;52.242;21.118;2023-04-03T12:24:37;5.10;;;1.60;;
33794;SDS011;51430;52.242;21.118;2023-04-03T12:27:14;1.90;;;1.50;;
33794;SDS011;51430;52.242;21.118;2023-04-03T12:29:47;2.50;;;1.40;;
33794;SDS011;51430;52.242;21.118;2023-04-03T12:35:17;2.50;;;1.40;;
33794;SDS011;51430;52.242;21.118;2023-04-03T12:47:51;2.60;;;1.40;;
33794;SDS011;51430;52.242;21.118;2023-04-03T12:53:06;2.30;;;1.50;;
33794;SDS011;51430;52.242;21.118;2023-04-03T12:55:55;2.40;;;1.20;;
33794;SDS011;51430;52.242;21.118;2023-04-03T12:58:28;1.90;;;1.20;;
33794;SDS011;51430;52.242;21.118;2023-04-03T13:01:00;1.60;;;1.20;;
33794;SDS011;51430;52.242;21.118;2023-04-03T13:03:47;2.80;;;1.50;;
33794;SDS011;51430;52.242;21.118;2023-04-03T13:06:21;2.10;;;1.50;;
33794;SDS011;51430;52.242;21.118;2023-04-03T13:08:51;1.40;;;1.10;;
33794;SDS011;51430;52.242;21.118;2023-04-03T13:11:20;1.60;;;1.20;;
33794;SDS011;51430;52.242;21.118;2023-04-03T13:13:55;2.20;;;1.40;;
33794;SDS011;51430;52.242;21.118;2023-04-03T13:16:28;3.50;;;1.40;;
33794;SDS011;51430;52.242;21.118;2023-04-03T13:18:55;1.90;;;1.20;;
33794;SDS011;51430;52.242;21.118;2023-04-03T13:21:31;1.30;;;1.10;;
33794;SDS011;51430;52.242;21.118;2023-04-03T13:24:01;2.60;;;1.50;;
33794;SDS011;51430;52.242;21.118;2023-04-03T13:26:41;3.00;;;1.40;;
33794;SDS011;51430;52.242;21.118;2023-04-03T13:29:20;3.90;;;1.80;;
33794;SDS011;51430;52.242;21.118;2023-04-03T13:31:58;2.80;;;1.50;;
33794;SDS011;51430;52.242;21.118;2023-04-03T13:34:28;2.20;;;1.40;;
33794;SDS011;51430;52.242;21.118;2023-04-03T13:37:02;2.50;;;1.20;;
33794;SDS011;51430;52.242;21.118;2023-04-03T13:39:34;2.30;;;1.30;;
33794;SDS011;51430;52.242;21.118;2023-04-03T13:42:22;1.90;;;1.30;;
33794;SDS011;51430;52.242;21.118;2023-04-03T13:45:16;2.10;;;1.30;;
33794;SDS011;51430;52.242;21.118;2023-04-03T13:47:50;2.90;;;1.30;;
33794;SDS011;51430;52.242;21.118;2023-04-03T13:50:22;2.60;;;1.40;;
33794;SDS011;51430;52.242;21.118;2023-04-03T13:52:55;2.80;;;1.30;;
33794;SDS011;51430;52.242;21.118;2023-04-03T14:00:46;1.80;;;1.60;;
33794;SDS011;51430;52.242;21.118;2023-04-03T14:05:49;2.20;;;1.40;;
33794;SDS011;51430;52.242;21.118;2023-04-03T14:08:17;2.00;;;1.20;;
33794;SDS011;51430;52.242;21.118;2023-04-03T14:10:49;2.90;;;1.40;;
33794;SDS011;51430;52.242;21.118;2023-04-03T14:13:17;3.80;;;1.40;;
33794;SDS011;51430;52.242;21.118;2023-04-03T14:15:49;2.80;;;1.60;;
33794;SDS011;51430;52.242;21.118;2023-04-03T14:18:18;2.40;;;1.40;;
33794;SDS011;51430;52.242;21.118;2023-04-03T14:20:47;2.50;;;1.40;;
33794;SDS011;51430;52.242;21.118;2023-04-03T14:23:15;1.50;;;1.40;;
33794;SDS011;51430;52.242;21.118;2023-04-03T14:25:43;2.40;;;1.50;;
33794;SDS011;51430;52.242;21.118;2023-04-03T14:28:17;2.70;;;1.50;;
33794;SDS011;51430;52.242;21.118;2023-04-03T14:30:46;2.10;;;1.40;;
33794;SDS011;51430;52.242;21.118;2023-04-03T14:33:16;3.30;;;1.70;;
33794;SDS011;51430;52.242;21.118;2023-04-03T14:35:46;2.70;;;1.60;;
33794;SDS011;51430;52.242;21.118;2023-04-03T14:38:24;2.90;;;1.60;;
33794;SDS011;51430;52.242;21.118;2023-04-03T14:40:56;2.00;;;1.30;;
33794;SDS011;51430;52.242;21.118;2023-04-03T14:43:42;2.20;;;1.30;;
33794;SDS011;51430;52.242;21.118;2023-04-03T14:46:13;2.30;;;1.30;;
33794;SDS011;51430;52.242;21.118;2023-04-03T14:48:43;2.20;;;1.40;;
33794;SDS011;51430;52.242;21.118;2023-04-03T14:51:11;2.70;;;1.50;;
33794;SDS011;51430;52.242;21.118;2023-04-03T14:53:39;4.50;;;2.40;;
33794;SDS011;51430;52.242;21.118;2023-04-03T14:58:52;2.80;;;1.90;;
33794;SDS011;51430;52.242;21.118;2023-04-03T15:01:23;1.70;;;1.60;;
33794;SDS011;51430;52.242;21.118;2023-04-03T15:03:50;3.00;;;1.90;;
33794;SDS011;51430;52.242;21.118;2023-04-03T15:13:48;3.90;;;1.80;;
33794;SDS011;51430;52.242;21.118;2023-04-03T15:16:17;4.10;;;2.50;;
33794;SDS011;51430;52.242;21.118;2023-04-03T15:18:49;3.50;;;2.50;;
33794;SDS011;51430;52.242;21.118;2023-04-03T15:21:17;4.00;;;2.10;;
33794;SDS011;51430;52.242;21.118;2023-04-03T15:23:45;4.90;;;2.50;;
33794;SDS011;51430;52.242;21.118;2023-04-03T15:26:15;4.50;;;2.40;;
33794;SDS011;51430;52.242;21.118;2023-04-03T15:28:52;3.80;;;2.10;;
33794;SDS011;51430;52.242;21.118;2023-04-03T15:31:21;4.30;;;2.30;;
33794;SDS011;51430;52.242;21.118;2023-04-03T15:33:49;2.60;;;1.80;;
33794;SDS011;51430;52.242;21.118;2023-04-03T15:36:17;2.90;;;1.60;;
33794;SDS011;51430;52.242;21.118;2023-04-03T15:38:49;2.40;;;1.80;;
33794;SDS011;51430;52.242;21.118;2023-04-03T15:41:17;2.30;;;1.40;;
33794;SDS011;51430;52.242;21.118;2023-04-03T15:43:45;2.90;;;1.70;;
33794;SDS011;51430;52.242;21.118;2023-04-03T15:46:13;4.50;;;2.10;;
33794;SDS011;51430;52.242;21.118;2023-04-03T15:48:41;3.40;;;2.20;;
33794;SDS011;51430;52.242;21.118;2023-04-03T15:51:09;3.50;;;2.40;;
33794;SDS011;51430;52.242;21.118;2023-04-03T15:53:38;3.60;;;2.10;;
33794;SDS011;51430;52.242;21.118;2023-04-03T15:56:06;3.80;;;2.00;;
33794;SDS011;51430;52.242;21.118;2023-04-03T15:58:35;3.20;;;1.80;;
33794;SDS011;51430;52.242;21.118;2023-04-03T16:01:03;2.70;;;1.80;;
33794;SDS011;51430;52.242;21.118;2023-04-03T16:03:32;3.00;;;1.90;;
33794;SDS011;51430;52.242;21.118;2023-04-03T16:06:01;3.90;;;2.20;;
33794;SDS011;51430;52.242;21.118;2023-04-03T16:08:31;2.80;;;2.10;;
33794;SDS011;51430;52.242;21.118;2023-04-03T16:10:59;4.00;;;2.30;;
33794;SDS011;51430;52.242;21.118;2023-04-03T16:13:28;4.20;;;2.50;;
33794;SDS011;51430;52.242;21.118;2023-04-03T16:15:56;4.10;;;2.70;;
33794;SDS011;51430;52.242;21.118;2023-04-03T16:24:39;3.90;;;2.30;;
33794;SDS011;51430;52.242;21.118;2023-04-03T16:27:07;3.40;;;2.40;;
33794;SDS011;51430;52.242;21.118;2023-04-03T16:29:36;3.60;;;2.50;;
33794;SDS011;51430;52.242;21.118;2023-04-03T16:32:04;4.30;;;2.60;;
33794;SDS011;51430;52.242;21.118;2023-04-03T16:34:32;3.80;;;2.60;;
33794;SDS011;51430;52.242;21.118;2023-04-03T16:37:01;4.40;;;2.60;;
33794;SDS011;51430;52.242;21.118;2023-04-03T16:39:29;3.20;;;2.30;;
33794;SDS011;51430;52.242;21.118;2023-04-03T16:41:57;4.10;;;2.30;;
33794;SDS011;51430;52.242;21.118;2023-04-03T16:44:25;3.20;;;2.40;;
33794;SDS011;51430;52.242;21.118;2023-04-03T16:46:53;5.50;;;2.60;;
33794;SDS011;51430;52.242;21.118;2023-04-03T16:49:22;4.20;;;2.60;;
33794;SDS011;51430;52.242;21.118;2023-04-03T16:51:50;3.90;;;2.50;;